sensor_id;sensor_type;location;lat;lon;timestamp;pressure;altitude;pressure_sealevel;temperature;humidity
64538;BME280;50921;53.132;18.042;2022-08-03T00:10:19;101372.91;;;18.67;42.24
64538;BME280;50921;53.132;18.042;2022-08-03T00:25:20;101383.66;;;18.55;42.54
64538;BME280;50921;53.132;18.042;2022-08-03T00:40:21;101388.44;;;18.36;43.01
64538;BME280;50921;53.132;18.042;2022-08-03T00:55:23;101383.61;;;18.26;43.50
64538;BME280;50921;53.132;18.042;2022-08-03T01:10:47;101378.88;;;18.20;44.05
64538;BME280;50921;53.132;18.042;2022-08-03T01:41:52;101355.65;;;18.08;45.73
64538;BME280;50921;53.132;18.042;2022-08-03T01:56:55;101350.52;;;18.07;45.85
64538;BME280;50921;53.132;18.042;2022-08-03T02:11:56;101358.92;;;18.06;46.36
64538;BME280;50921;53.132;18.042;2022-08-03T02:26:59;101349.86;;;17.99;51.18
64538;BME280;50921;53.132;18.042;2022-08-03T02:42:00;101341.36;;;17.95;47.73
64538;BME280;50921;53.132;18.042;2022-08-03T02:57:02;101335.85;;;17.77;49.88
64538;BME280;50921;53.132;18.042;2022-08-03T03:12:09;101335.85;;;17.77;49.88
64538;BME280;50921;53.132;18.042;2022-08-03T03:27:13;101338.73;;;17.80;50.68
64538;BME280;50921;53.132;18.042;2022-08-03T03:42:15;101336.22;;;17.78;51.70
64538;BME280;50921;53.132;18.042;2022-08-03T03:57:17;101347.75;;;17.77;52.09
64538;BME280;50921;53.132;18.042;2022-08-03T04:12:24;101346.88;;;17.83;52.04
64538;BME280;50921;53.132;18.042;2022-08-03T04:27:28;101366.49;;;17.95;52.22
64538;BME280;50921;53.132;18.042;2022-08-03T04:42:33;101371.23;;;18.36;52.28
64538;BME280;50921;53.132;18.042;2022-08-03T04:57:34;101386.65;;;18.86;52.43
64538;BME280;50921;53.132;18.042;2022-08-03T05:12:35;101386.53;;;19.21;52.62
64538;BME280;50921;53.132;18.042;2022-08-03T05:27:37;101389.48;;;19.69;51.68
64538;BME280;50921;53.132;18.042;2022-08-03T05:42:38;101392.29;;;20.23;51.44
64538;BME280;50921;53.132;18.042;2022-08-03T05:57:40;101394.19;;;20.31;51.02
64538;BME280;50921;53.132;18.042;2022-08-03T06:12:41;101404.85;;;20.67;50.94
64538;BME280;50921;53.132;18.042;2022-08-03T06:27:42;101406.91;;;21.43;51.07
64538;BME280;50921;53.132;18.042;2022-08-03T06:42:44;101409.36;;;23.61;48.94
64538;BME280;50921;53.132;18.042;2022-08-03T06:57:45;101407.92;;;25.73;46.81
64538;BME280;50921;53.132;18.042;2022-08-03T07:12:46;101413.83;;;27.76;43.88
64538;BME280;50921;53.132;18.042;2022-08-03T07:27:47;101421.78;;;27.74;42.75
64538;BME280;50921;53.132;18.042;2022-08-03T07:42:49;101417.41;;;28.98;40.77
64538;BME280;50921;53.132;18.042;2022-08-03T07:58:01;101417.08;;;28.97;39.64
64538;BME280;50921;53.132;18.042;2022-08-03T08:13:09;101418.55;;;29.20;38.70
64538;BME280;50921;53.132;18.042;2022-08-03T08:28:09;101408.41;;;30.67;37.28
64538;BME280;50921;53.132;18.042;2022-08-03T08:43:10;101398.13;;;31.54;34.82
64538;BME280;50921;53.132;18.042;2022-08-03T08:58:13;101407.64;;;32.35;29.25
64538;BME280;50921;53.132;18.042;2022-08-03T09:13:17;101407.64;;;32.35;29.25
64538;BME280;50921;53.132;18.042;2022-08-03T09:28:18;101401.62;;;32.54;30.61
64538;BME280;50921;53.132;18.042;2022-08-03T09:43:19;101411.96;;;32.78;30.71
64538;BME280;50921;53.132;18.042;2022-08-03T09:58:21;101401.25;;;32.84;30.54
64538;BME280;50921;53.132;18.042;2022-08-03T10:13:24;101389.70;;;33.00;29.81
64538;BME280;50921;53.132;18.042;2022-08-03T10:28:26;101382.63;;;33.11;29.39
64538;BME280;50921;53.132;18.042;2022-08-03T10:58:59;101370.52;;;33.02;28.96
64538;BME280;50921;53.132;18.042;2022-08-03T11:14:11;101362.17;;;31.93;29.38
64538;BME280;50921;53.132;18.042;2022-08-03T11:29:25;101356.72;;;31.81;29.10
64538;BME280;50921;53.132;18.042;2022-08-03T11:44:39;101343.98;;;31.42;26.19
64538;BME280;50921;53.132;18.042;2022-08-03T11:59:40;101332.63;;;30.68;29.53
64538;BME280;50921;53.132;18.042;2022-08-03T12:14:45;101332.63;;;30.68;29.53
64538;BME280;50921;53.132;18.042;2022-08-03T12:29:49;101310.87;;;30.54;29.87
64538;BME280;50921;53.132;18.042;2022-08-03T12:44:51;101310.87;;;30.54;29.87
64538;BME280;50921;53.132;18.042;2022-08-03T12:59:52;101309.41;;;30.42;29.75
64538;BME280;50921;53.132;18.042;2022-08-03T13:14:58;101298.28;;;30.32;30.33
64538;BME280;50921;53.132;18.042;2022-08-03T13:30:03;101300.88;;;30.45;30.33
64538;BME280;50921;53.132;18.042;2022-08-03T13:45:05;101277.95;;;30.29;30.51
64538;BME280;50921;53.132;18.042;2022-08-03T14:00:07;101268.42;;;30.18;30.43
64538;BME280;50921;53.132;18.042;2022-08-03T14:15:09;101254.22;;;30.04;30.30
64538;BME280;50921;53.132;18.042;2022-08-03T14:30:10;101254.22;;;30.04;30.30
64538;BME280;50921;53.132;18.042;2022-08-03T14:45:12;101241.84;;;29.96;30.49
64538;BME280;50921;53.132;18.042;2022-08-03T15:00:14;101245.42;;;29.99;30.61
64538;BME280;50921;53.132;18.042;2022-08-03T15:15:15;101234.72;;;29.92;30.69
64538;BME280;50921;53.132;18.042;2022-08-03T15:30:15;101230.72;;;29.86;31.03
64538;BME280;50921;53.132;18.042;2022-08-03T15:45:16;101213.41;;;29.84;31.18
64538;BME280;50921;53.132;18.042;2022-08-03T16:00:18;101207.78;;;29.76;31.21
64538;BME280;50921;53.132;18.042;2022-08-03T16:15:19;101209.10;;;29.61;31.08
64538;BME280;50921;53.132;18.042;2022-08-03T16:30:20;101194.09;;;29.39;31.46
64538;BME280;50921;53.132;18.042;2022-08-03T16:45:21;101187.43;;;29.33;31.72
64538;BME280;50921;53.132;18.042;2022-08-03T17:00:21;101184.16;;;29.24;31.85
64538;BME280;50921;53.132;18.042;2022-08-03T17:15:23;101190.63;;;29.10;31.98
64538;BME280;50921;53.132;18.042;2022-08-03T17:30:23;101191.39;;;29.01;32.23
64538;BME280;50921;53.132;18.042;2022-08-03T17:45:25;101203.39;;;28.76;32.33
64538;BME280;50921;53.132;18.042;2022-08-03T18:00:26;101205.70;;;28.52;32.58
64538;BME280;50921;53.132;18.042;2022-08-03T18:15:29;101226.64;;;28.23;32.85
64538;BME280;50921;53.132;18.042;2022-08-03T18:30:33;101226.45;;;28.05;33.10
64538;BME280;50921;53.132;18.042;2022-08-03T18:45:36;101235.92;;;27.81;33.36
64538;BME280;50921;53.132;18.042;2022-08-03T19:00:50;101253.84;;;27.60;33.73
64538;BME280;50921;53.132;18.042;2022-08-03T19:15:56;101261.75;;;27.38;34.31
64538;BME280;50921;53.132;18.042;2022-08-03T19:30:59;101262.61;;;27.03;34.91
64538;BME280;50921;53.132;18.042;2022-08-03T19:46:03;101263.28;;;26.77;35.38
64538;BME280;50921;53.132;18.042;2022-08-03T20:01:07;101264.93;;;26.61;35.61
64538;BME280;50921;53.132;18.042;2022-08-03T20:16:08;101277.91;;;26.35;36.18
64538;BME280;50921;53.132;18.042;2022-08-03T20:31:11;101283.11;;;26.05;36.46
64538;BME280;50921;53.132;18.042;2022-08-03T20:46:14;101271.47;;;25.76;37.06
64538;BME280;50921;53.132;18.042;2022-08-03T21:01:17;101277.63;;;25.44;37.92
64538;BME280;50921;53.132;18.042;2022-08-03T21:16:18;101284.19;;;25.27;38.28
64538;BME280;50921;53.132;18.042;2022-08-03T21:31:21;101289.67;;;24.99;38.82
64538;BME280;50921;53.132;18.042;2022-08-03T21:46:25;101303.86;;;24.70;39.42
64538;BME280;50921;53.132;18.042;2022-08-03T22:01:30;101315.20;;;24.49;40.08
64538;BME280;50921;53.132;18.042;2022-08-03T22:16:32;101317.20;;;24.28;40.45
64538;BME280;50921;53.132;18.042;2022-08-03T22:31:35;101318.88;;;24.06;40.53
64538;BME280;50921;53.132;18.042;2022-08-03T22:46:38;101319.05;;;23.81;41.03
64538;BME280;50921;53.132;18.042;2022-08-03T23:01:44;101323.45;;;23.58;41.26
64538;BME280;50921;53.132;18.042;2022-08-03T23:16:49;101328.58;;;23.36;41.75
64538;BME280;50921;53.132;18.042;2022-08-03T23:31:51;101338.30;;;23.12;43.04
64538;BME280;50921;53.132;18.042;2022-08-03T23:46:53;101341.17;;;22.86;43.01
